sensor_id;sensor_type;location;lat;lon;timestamp;P1;durP1;ratioP1;P2;durP2;ratioP2
50649;SDS011;36621;60.058;30.346;2023-08-07T00:03:33;49.47;;;15.57;;
50649;SDS011;36621;60.058;30.346;2023-08-07T00:11:07;16.85;;;12.60;;
50649;SDS011;36621;60.058;30.346;2023-08-07T00:18:40;13.27;;;11.95;;
50649;SDS011;36621;60.058;30.346;2023-08-07T00:26:13;14.18;;;12.77;;
50649;SDS011;36621;60.058;30.346;2023-08-07T00:33:45;15.98;;;12.23;;
50649;SDS011;36621;60.058;30.346;2023-08-07T00:41:18;14.68;;;13.27;;
50649;SDS011;36621;60.058;30.346;2023-08-07T00:48:50;15.50;;;13.52;;
50649;SDS011;36621;60.058;30.346;2023-08-07T00:56:24;17.15;;;13.57;;
50649;SDS011;36621;60.058;30.346;2023-08-07T01:03:57;15.10;;;13.55;;
50649;SDS011;36621;60.058;30.346;2023-08-07T01:11:34;30.38;;;14.48;;
50649;SDS011;36621;60.058;30.346;2023-08-07T01:19:14;15.10;;;13.60;;
50649;SDS011;36621;60.058;30.346;2023-08-07T01:26:51;16.73;;;13.38;;
50649;SDS011;36621;60.058;30.346;2023-08-07T01:34:27;15.40;;;13.63;;
50649;SDS011;36621;60.058;30.346;2023-08-07T01:42:00;17.30;;;14.00;;
50649;SDS011;36621;60.058;30.346;2023-08-07T01:49:33;16.98;;;14.10;;
50649;SDS011;36621;60.058;30.346;2023-08-07T01:57:07;14.95;;;13.38;;
50649;SDS011;36621;60.058;30.346;2023-08-07T02:04:40;16.70;;;13.70;;
50649;SDS011;36621;60.058;30.346;2023-08-07T02:12:13;15.13;;;13.63;;
50649;SDS011;36621;60.058;30.346;2023-08-07T02:19:46;15.85;;;13.40;;
50649;SDS011;36621;60.058;30.346;2023-08-07T02:27:22;14.35;;;12.70;;
50649;SDS011;36621;60.058;30.346;2023-08-07T02:34:55;14.25;;;12.85;;
50649;SDS011;36621;60.058;30.346;2023-08-07T03:41:41;12.35;;;10.95;;
50649;SDS011;36621;60.058;30.346;2023-08-07T03:49:16;14.63;;;10.23;;
50649;SDS011;36621;60.058;30.346;2023-08-07T03:56:50;11.60;;;9.88;;
50649;SDS011;36621;60.058;30.346;2023-08-07T04:04:23;13.02;;;10.10;;
50649;SDS011;36621;60.058;30.346;2023-08-07T04:11:57;13.55;;;9.60;;
50649;SDS011;36621;60.058;30.346;2023-08-07T04:19:30;13.10;;;9.90;;
50649;SDS011;36621;60.058;30.346;2023-08-07T04:27:04;13.55;;;9.70;;
50649;SDS011;36621;60.058;30.346;2023-08-07T04:34:37;10.63;;;8.38;;
50649;SDS011;36621;60.058;30.346;2023-08-07T04:50:09;17.25;;;8.30;;
50649;SDS011;36621;60.058;30.346;2023-08-07T05:59:30;9.70;;;5.82;;
50649;SDS011;36621;60.058;30.346;2023-08-07T06:07:04;9.40;;;6.07;;
50649;SDS011;36621;60.058;30.346;2023-08-07T06:14:36;16.70;;;9.10;;
50649;SDS011;36621;60.058;30.346;2023-08-07T06:22:10;12.00;;;6.55;;
50649;SDS011;36621;60.058;30.346;2023-08-07T06:29:44;10.82;;;7.07;;
50649;SDS011;36621;60.058;30.346;2023-08-07T06:37:18;15.57;;;7.60;;
50649;SDS011;36621;60.058;30.346;2023-08-07T06:44:50;10.75;;;7.05;;
50649;SDS011;36621;60.058;30.346;2023-08-07T06:52:23;17.88;;;7.72;;
50649;SDS011;36621;60.058;30.346;2023-08-07T18:21:17;7.10;;;3.08;;
50649;SDS011;36621;60.058;30.346;2023-08-07T18:28:52;9.20;;;4.30;;
50649;SDS011;36621;60.058;30.346;2023-08-07T18:36:26;11.40;;;6.68;;
50649;SDS011;36621;60.058;30.346;2023-08-07T18:44:00;11.25;;;5.65;;
50649;SDS011;36621;60.058;30.346;2023-08-07T18:51:34;14.80;;;5.75;;
50649;SDS011;36621;60.058;30.346;2023-08-07T18:59:07;11.02;;;5.18;;
50649;SDS011;36621;60.058;30.346;2023-08-07T19:07:14;10.40;;;4.20;;
50649;SDS011;36621;60.058;30.346;2023-08-07T19:14:58;8.93;;;4.10;;
50649;SDS011;36621;60.058;30.346;2023-08-07T20:12:57;11.68;;;4.03;;
50649;SDS011;36621;60.058;30.346;2023-08-07T20:30:25;6.82;;;3.65;;
50649;SDS011;36621;60.058;30.346;2023-08-07T21:05:47;6.93;;;3.40;;
50649;SDS011;36621;60.058;30.346;2023-08-07T21:13:25;5.18;;;3.35;;
50649;SDS011;36621;60.058;30.346;2023-08-07T21:29:55;9.43;;;3.53;;
50649;SDS011;36621;60.058;30.346;2023-08-07T21:37:36;6.40;;;3.40;;
50649;SDS011;36621;60.058;30.346;2023-08-07T21:45:21;10.05;;;3.45;;
50649;SDS011;36621;60.058;30.346;2023-08-07T21:53:00;6.65;;;2.92;;
50649;SDS011;36621;60.058;30.346;2023-08-07T22:00:35;4.28;;;3.20;;
50649;SDS011;36621;60.058;30.346;2023-08-07T22:08:31;9.95;;;3.45;;
50649;SDS011;36621;60.058;30.346;2023-08-07T22:24:01;6.15;;;2.95;;
50649;SDS011;36621;60.058;30.346;2023-08-07T22:31:45;6.45;;;2.95;;
50649;SDS011;36621;60.058;30.346;2023-08-07T22:39:21;5.47;;;3.20;;
50649;SDS011;36621;60.058;30.346;2023-08-07T22:46:55;5.97;;;2.87;;
50649;SDS011;36621;60.058;30.346;2023-08-07T22:54:31;4.95;;;3.33;;
50649;SDS011;36621;60.058;30.346;2023-08-07T23:02:18;9.25;;;3.80;;
50649;SDS011;36621;60.058;30.346;2023-08-07T23:11:14;8.57;;;3.38;;
50649;SDS011;36621;60.058;30.346;2023-08-07T23:20:06;8.10;;;3.47;;
50649;SDS011;36621;60.058;30.346;2023-08-07T23:36:12;11.40;;;3.20;;
50649;SDS011;36621;60.058;30.346;2023-08-07T23:43:57;7.68;;;3.40;;
50649;SDS011;36621;60.058;30.346;2023-08-07T23:51:30;3.95;;;3.50;;
50649;SDS011;36621;60.058;30.346;2023-08-07T23:59:06;9.10;;;3.90;;
